sensor_id;sensor_type;location;lat;lon;timestamp;P1;durP1;ratioP1;P2;durP2;ratioP2
60859;SDS011;46694;54.382;9.708;2022-09-12T00:01:25;3.83;;;3.60;;
60859;SDS011;46694;54.382;9.708;2022-09-12T00:04:05;3.83;;;3.53;;
60859;SDS011;46694;54.382;9.708;2022-09-12T00:06:45;3.47;;;3.27;;
60859;SDS011;46694;54.382;9.708;2022-09-12T00:09:24;4.30;;;4.00;;
60859;SDS011;46694;54.382;9.708;2022-09-12T00:12:04;3.57;;;3.37;;
60859;SDS011;46694;54.382;9.708;2022-09-12T00:14:44;4.43;;;4.13;;
60859;SDS011;46694;54.382;9.708;2022-09-12T00:17:23;7.77;;;4.27;;
60859;SDS011;46694;54.382;9.708;2022-09-12T00:20:04;4.70;;;4.40;;
60859;SDS011;46694;54.382;9.708;2022-09-12T00:22:46;4.63;;;4.30;;
60859;SDS011;46694;54.382;9.708;2022-09-12T00:25:26;4.60;;;4.20;;
60859;SDS011;46694;54.382;9.708;2022-09-12T00:28:08;4.33;;;3.93;;
60859;SDS011;46694;54.382;9.708;2022-09-12T00:30:48;4.80;;;3.23;;
60859;SDS011;46694;54.382;9.708;2022-09-12T00:33:28;3.70;;;3.50;;
60859;SDS011;46694;54.382;9.708;2022-09-12T00:36:15;3.57;;;3.37;;
60859;SDS011;46694;54.382;9.708;2022-09-12T00:38:59;3.87;;;3.57;;
60859;SDS011;46694;54.382;9.708;2022-09-12T00:41:39;4.03;;;2.93;;
60859;SDS011;46694;54.382;9.708;2022-09-12T00:49:54;6.20;;;4.47;;
60859;SDS011;46694;54.382;9.708;2022-09-12T00:52:48;4.67;;;4.27;;
60859;SDS011;46694;54.382;9.708;2022-09-12T00:55:40;5.17;;;4.60;;
60859;SDS011;46694;54.382;9.708;2022-09-12T00:58:31;8.97;;;5.40;;
60859;SDS011;46694;54.382;9.708;2022-09-12T01:01:22;5.03;;;4.57;;
60859;SDS011;46694;54.382;9.708;2022-09-12T01:04:02;5.23;;;4.83;;
60859;SDS011;46694;54.382;9.708;2022-09-12T01:06:42;6.30;;;5.00;;
60859;SDS011;46694;54.382;9.708;2022-09-12T01:09:22;4.70;;;4.40;;
60859;SDS011;46694;54.382;9.708;2022-09-12T01:12:03;5.27;;;4.87;;
60859;SDS011;46694;54.382;9.708;2022-09-12T01:14:43;6.60;;;5.60;;
60859;SDS011;46694;54.382;9.708;2022-09-12T01:17:23;5.87;;;5.10;;
60859;SDS011;46694;54.382;9.708;2022-09-12T01:51:47;5.30;;;4.50;;
60859;SDS011;46694;54.382;9.708;2022-09-12T02:01:07;8.43;;;7.73;;
60859;SDS011;46694;54.382;9.708;2022-09-12T02:03:50;10.37;;;7.50;;
60859;SDS011;46694;54.382;9.708;2022-09-12T02:06:52;8.90;;;8.20;;
60859;SDS011;46694;54.382;9.708;2022-09-12T02:09:58;8.70;;;7.20;;
60859;SDS011;46694;54.382;9.708;2022-09-12T02:13:03;9.37;;;7.17;;
60859;SDS011;46694;54.382;9.708;2022-09-12T02:15:52;8.37;;;7.57;;
60859;SDS011;46694;54.382;9.708;2022-09-12T02:18:45;8.17;;;7.47;;
60859;SDS011;46694;54.382;9.708;2022-09-12T02:21:30;8.10;;;7.40;;
60859;SDS011;46694;54.382;9.708;2022-09-12T02:24:11;5.73;;;5.33;;
60859;SDS011;46694;54.382;9.708;2022-09-12T02:26:54;9.20;;;5.57;;
60859;SDS011;46694;54.382;9.708;2022-09-12T02:29:39;6.40;;;5.90;;
60859;SDS011;46694;54.382;9.708;2022-09-12T02:32:32;6.50;;;5.90;;
60859;SDS011;46694;54.382;9.708;2022-09-12T02:38:08;4.70;;;4.37;;
60859;SDS011;46694;54.382;9.708;2022-09-12T02:41:00;4.67;;;4.27;;
60859;SDS011;46694;54.382;9.708;2022-09-12T02:43:40;5.03;;;4.63;;
60859;SDS011;46694;54.382;9.708;2022-09-12T02:46:41;4.90;;;4.60;;
60859;SDS011;46694;54.382;9.708;2022-09-12T02:49:26;4.90;;;4.40;;
60859;SDS011;46694;54.382;9.708;2022-09-12T02:52:06;6.23;;;4.33;;
60859;SDS011;46694;54.382;9.708;2022-09-12T02:54:45;4.50;;;4.30;;
60859;SDS011;46694;54.382;9.708;2022-09-12T02:57:26;4.80;;;4.40;;
60859;SDS011;46694;54.382;9.708;2022-09-12T03:00:06;5.63;;;5.33;;
60859;SDS011;46694;54.382;9.708;2022-09-12T03:12:42;7.30;;;6.80;;
60859;SDS011;46694;54.382;9.708;2022-09-12T03:21:47;9.10;;;8.13;;
60859;SDS011;46694;54.382;9.708;2022-09-12T03:25:18;8.93;;;8.03;;
60859;SDS011;46694;54.382;9.708;2022-09-12T03:28:10;10.60;;;8.20;;
60859;SDS011;46694;54.382;9.708;2022-09-12T03:30:55;11.70;;;9.80;;
60859;SDS011;46694;54.382;9.708;2022-09-12T03:33:35;10.43;;;8.80;;
60859;SDS011;46694;54.382;9.708;2022-09-12T03:36:15;15.13;;;10.17;;
60859;SDS011;46694;54.382;9.708;2022-09-12T03:39:04;16.60;;;8.80;;
60859;SDS011;46694;54.382;9.708;2022-09-12T03:41:44;9.43;;;8.07;;
60859;SDS011;46694;54.382;9.708;2022-09-12T03:44:23;8.87;;;7.20;;
60859;SDS011;46694;54.382;9.708;2022-09-12T03:47:03;8.00;;;7.20;;
60859;SDS011;46694;54.382;9.708;2022-09-12T03:49:42;99.43;;;9.50;;
60859;SDS011;46694;54.382;9.708;2022-09-12T03:52:22;16.87;;;8.37;;
60859;SDS011;46694;54.382;9.708;2022-09-12T03:55:02;17.97;;;8.57;;
60859;SDS011;46694;54.382;9.708;2022-09-12T03:57:42;8.60;;;7.87;;
60859;SDS011;46694;54.382;9.708;2022-09-12T04:00:22;86.30;;;8.67;;
60859;SDS011;46694;54.382;9.708;2022-09-12T04:03:02;7.10;;;6.60;;
60859;SDS011;46694;54.382;9.708;2022-09-12T04:05:42;9.70;;;8.70;;
60859;SDS011;46694;54.382;9.708;2022-09-12T04:08:21;17.00;;;8.47;;
60859;SDS011;46694;54.382;9.708;2022-09-12T04:11:02;14.13;;;10.70;;
60859;SDS011;46694;54.382;9.708;2022-09-12T04:13:44;20.60;;;10.80;;
60859;SDS011;46694;54.382;9.708;2022-09-12T04:16:25;12.43;;;10.80;;
60859;SDS011;46694;54.382;9.708;2022-09-12T04:19:10;101.00;;;13.60;;
60859;SDS011;46694;54.382;9.708;2022-09-12T04:21:50;53.27;;;13.10;;
60859;SDS011;46694;54.382;9.708;2022-09-12T04:24:29;34.13;;;11.23;;
60859;SDS011;46694;54.382;9.708;2022-09-12T04:27:09;13.10;;;11.33;;
60859;SDS011;46694;54.382;9.708;2022-09-12T04:29:49;11.77;;;10.83;;
60859;SDS011;46694;54.382;9.708;2022-09-12T04:32:29;13.97;;;12.77;;
60859;SDS011;46694;54.382;9.708;2022-09-12T04:35:09;14.37;;;13.10;;
60859;SDS011;46694;54.382;9.708;2022-09-12T04:37:49;15.03;;;13.63;;
60859;SDS011;46694;54.382;9.708;2022-09-12T04:40:29;13.83;;;12.50;;
60859;SDS011;46694;54.382;9.708;2022-09-12T04:43:09;14.43;;;13.23;;
60859;SDS011;46694;54.382;9.708;2022-09-12T04:45:49;14.80;;;13.37;;
60859;SDS011;46694;54.382;9.708;2022-09-12T04:48:29;15.40;;;14.00;;
60859;SDS011;46694;54.382;9.708;2022-09-12T04:51:13;37.63;;;15.17;;
60859;SDS011;46694;54.382;9.708;2022-09-12T04:53:56;52.37;;;18.20;;
60859;SDS011;46694;54.382;9.708;2022-09-12T04:56:40;17.27;;;15.43;;
60859;SDS011;46694;54.382;9.708;2022-09-12T04:59:22;15.97;;;14.37;;
60859;SDS011;46694;54.382;9.708;2022-09-12T05:02:02;17.03;;;15.30;;
60859;SDS011;46694;54.382;9.708;2022-09-12T05:04:41;17.00;;;15.20;;
60859;SDS011;46694;54.382;9.708;2022-09-12T05:07:21;20.90;;;15.40;;
60859;SDS011;46694;54.382;9.708;2022-09-12T05:10:01;22.70;;;15.33;;
60859;SDS011;46694;54.382;9.708;2022-09-12T05:12:41;16.83;;;14.37;;
60859;SDS011;46694;54.382;9.708;2022-09-12T05:15:21;34.43;;;14.13;;
60859;SDS011;46694;54.382;9.708;2022-09-12T05:18:00;38.27;;;14.50;;
60859;SDS011;46694;54.382;9.708;2022-09-12T05:20:40;15.63;;;13.37;;
60859;SDS011;46694;54.382;9.708;2022-09-12T05:23:20;26.27;;;13.03;;
60859;SDS011;46694;54.382;9.708;2022-09-12T05:26:00;56.13;;;14.17;;
60859;SDS011;46694;54.382;9.708;2022-09-12T05:28:42;29.10;;;13.50;;
60859;SDS011;46694;54.382;9.708;2022-09-12T05:31:22;40.23;;;14.30;;
60859;SDS011;46694;54.382;9.708;2022-09-12T05:34:04;21.93;;;14.47;;
60859;SDS011;46694;54.382;9.708;2022-09-12T05:36:44;18.63;;;14.30;;
60859;SDS011;46694;54.382;9.708;2022-09-12T05:39:24;34.53;;;15.50;;
60859;SDS011;46694;54.382;9.708;2022-09-12T05:42:04;61.13;;;16.90;;
60859;SDS011;46694;54.382;9.708;2022-09-12T05:44:44;16.47;;;14.87;;
60859;SDS011;46694;54.382;9.708;2022-09-12T05:47:23;15.63;;;13.60;;
60859;SDS011;46694;54.382;9.708;2022-09-12T05:50:03;15.27;;;12.93;;
60859;SDS011;46694;54.382;9.708;2022-09-12T05:52:48;16.50;;;15.00;;
60859;SDS011;46694;54.382;9.708;2022-09-12T05:55:28;16.57;;;14.80;;
60859;SDS011;46694;54.382;9.708;2022-09-12T05:58:08;13.30;;;12.10;;
60859;SDS011;46694;54.382;9.708;2022-09-12T06:00:48;16.13;;;14.37;;
60859;SDS011;46694;54.382;9.708;2022-09-12T06:03:28;17.33;;;15.63;;
60859;SDS011;46694;54.382;9.708;2022-09-12T06:06:07;16.93;;;15.23;;
60859;SDS011;46694;54.382;9.708;2022-09-12T06:08:49;18.83;;;16.83;;
60859;SDS011;46694;54.382;9.708;2022-09-12T06:11:30;19.53;;;17.50;;
60859;SDS011;46694;54.382;9.708;2022-09-12T06:14:13;20.70;;;18.50;;
60859;SDS011;46694;54.382;9.708;2022-09-12T06:16:54;19.23;;;17.03;;
60859;SDS011;46694;54.382;9.708;2022-09-12T06:19:34;19.10;;;17.10;;
60859;SDS011;46694;54.382;9.708;2022-09-12T06:22:13;19.27;;;17.00;;
60859;SDS011;46694;54.382;9.708;2022-09-12T06:24:53;17.63;;;15.43;;
60859;SDS011;46694;54.382;9.708;2022-09-12T06:27:32;16.93;;;15.13;;
60859;SDS011;46694;54.382;9.708;2022-09-12T06:30:12;18.13;;;15.70;;
60859;SDS011;46694;54.382;9.708;2022-09-12T06:32:52;19.40;;;17.30;;
60859;SDS011;46694;54.382;9.708;2022-09-12T06:35:34;15.87;;;14.40;;
60859;SDS011;46694;54.382;9.708;2022-09-12T06:38:15;17.47;;;15.67;;
60859;SDS011;46694;54.382;9.708;2022-09-12T06:40:55;17.33;;;15.57;;
60859;SDS011;46694;54.382;9.708;2022-09-12T06:43:35;16.97;;;15.27;;
60859;SDS011;46694;54.382;9.708;2022-09-12T06:46:16;17.63;;;14.83;;
60859;SDS011;46694;54.382;9.708;2022-09-12T06:48:57;15.97;;;14.33;;
60859;SDS011;46694;54.382;9.708;2022-09-12T06:51:38;17.37;;;15.67;;
60859;SDS011;46694;54.382;9.708;2022-09-12T06:54:19;15.63;;;14.13;;
60859;SDS011;46694;54.382;9.708;2022-09-12T06:56:59;14.50;;;13.20;;
60859;SDS011;46694;54.382;9.708;2022-09-12T06:59:39;20.60;;;14.60;;
60859;SDS011;46694;54.382;9.708;2022-09-12T07:02:18;16.33;;;13.47;;
60859;SDS011;46694;54.382;9.708;2022-09-12T07:04:58;13.73;;;12.37;;
60859;SDS011;46694;54.382;9.708;2022-09-12T07:07:38;14.63;;;13.17;;
60859;SDS011;46694;54.382;9.708;2022-09-12T07:10:18;14.90;;;13.57;;
60859;SDS011;46694;54.382;9.708;2022-09-12T07:12:58;13.73;;;11.83;;
60859;SDS011;46694;54.382;9.708;2022-09-12T07:15:38;10.67;;;9.77;;
60859;SDS011;46694;54.382;9.708;2022-09-12T07:18:18;11.63;;;10.70;;
60859;SDS011;46694;54.382;9.708;2022-09-12T07:20:59;11.97;;;10.77;;
60859;SDS011;46694;54.382;9.708;2022-09-12T07:23:40;12.70;;;10.30;;
60859;SDS011;46694;54.382;9.708;2022-09-12T07:26:20;10.97;;;9.77;;
60859;SDS011;46694;54.382;9.708;2022-09-12T07:29:00;8.47;;;7.77;;
60859;SDS011;46694;54.382;9.708;2022-09-12T07:31:40;8.67;;;7.87;;
60859;SDS011;46694;54.382;9.708;2022-09-12T07:34:19;9.90;;;7.50;;
60859;SDS011;46694;54.382;9.708;2022-09-12T07:36:59;8.73;;;7.60;;
60859;SDS011;46694;54.382;9.708;2022-09-12T07:39:38;14.87;;;6.90;;
60859;SDS011;46694;54.382;9.708;2022-09-12T07:42:18;7.27;;;6.50;;
60859;SDS011;46694;54.382;9.708;2022-09-12T07:44:58;7.40;;;6.70;;
60859;SDS011;46694;54.382;9.708;2022-09-12T07:47:37;7.70;;;6.90;;
60859;SDS011;46694;54.382;9.708;2022-09-12T07:50:18;6.50;;;5.93;;
60859;SDS011;46694;54.382;9.708;2022-09-12T07:52:58;7.03;;;6.43;;
60859;SDS011;46694;54.382;9.708;2022-09-12T07:55:37;7.10;;;5.77;;
60859;SDS011;46694;54.382;9.708;2022-09-12T07:58:17;10.37;;;6.13;;
60859;SDS011;46694;54.382;9.708;2022-09-12T08:01:12;13.70;;;6.57;;
60859;SDS011;46694;54.382;9.708;2022-09-12T08:03:56;12.33;;;5.27;;
60859;SDS011;46694;54.382;9.708;2022-09-12T08:06:37;11.83;;;6.30;;
60859;SDS011;46694;54.382;9.708;2022-09-12T08:09:17;13.87;;;6.10;;
60859;SDS011;46694;54.382;9.708;2022-09-12T08:11:56;10.67;;;6.10;;
60859;SDS011;46694;54.382;9.708;2022-09-12T08:14:36;9.67;;;5.00;;
60859;SDS011;46694;54.382;9.708;2022-09-12T08:17:16;12.10;;;5.57;;
60859;SDS011;46694;54.382;9.708;2022-09-12T08:19:55;11.13;;;5.80;;
60859;SDS011;46694;54.382;9.708;2022-09-12T08:22:35;13.47;;;5.10;;
60859;SDS011;46694;54.382;9.708;2022-09-12T08:25:14;10.20;;;4.90;;
60859;SDS011;46694;54.382;9.708;2022-09-12T08:27:54;9.90;;;4.80;;
60859;SDS011;46694;54.382;9.708;2022-09-12T08:30:34;9.80;;;4.70;;
60859;SDS011;46694;54.382;9.708;2022-09-12T08:33:13;9.23;;;4.63;;
60859;SDS011;46694;54.382;9.708;2022-09-12T08:35:53;10.37;;;4.67;;
60859;SDS011;46694;54.382;9.708;2022-09-12T08:38:42;9.87;;;3.27;;
60859;SDS011;46694;54.382;9.708;2022-09-12T08:47:34;8.60;;;4.40;;
60859;SDS011;46694;54.382;9.708;2022-09-12T08:50:19;7.83;;;3.60;;
60859;SDS011;46694;54.382;9.708;2022-09-12T08:53:09;8.40;;;3.97;;
60859;SDS011;46694;54.382;9.708;2022-09-12T08:55:55;12.57;;;4.90;;
60859;SDS011;46694;54.382;9.708;2022-09-12T08:58:38;12.63;;;6.37;;
60859;SDS011;46694;54.382;9.708;2022-09-12T09:04:13;11.27;;;4.97;;
60859;SDS011;46694;54.382;9.708;2022-09-12T09:13:32;12.20;;;4.90;;
60859;SDS011;46694;54.382;9.708;2022-09-12T09:17:02;8.27;;;3.33;;
60859;SDS011;46694;54.382;9.708;2022-09-12T09:26:12;9.13;;;3.23;;
60859;SDS011;46694;54.382;9.708;2022-09-12T09:31:58;9.20;;;2.80;;
60859;SDS011;46694;54.382;9.708;2022-09-12T09:34:41;7.47;;;2.87;;
60859;SDS011;46694;54.382;9.708;2022-09-12T09:43:34;6.50;;;2.77;;
60859;SDS011;46694;54.382;9.708;2022-09-12T09:46:16;6.97;;;3.20;;
60859;SDS011;46694;54.382;9.708;2022-09-12T09:48:56;5.83;;;2.60;;
60859;SDS011;46694;54.382;9.708;2022-09-12T09:51:38;7.27;;;2.83;;
60859;SDS011;46694;54.382;9.708;2022-09-12T09:54:27;6.50;;;2.53;;
60859;SDS011;46694;54.382;9.708;2022-09-12T10:00:23;8.30;;;2.73;;
60859;SDS011;46694;54.382;9.708;2022-09-12T10:08:36;6.00;;;2.30;;
60859;SDS011;46694;54.382;9.708;2022-09-12T10:11:21;6.27;;;2.73;;
60859;SDS011;46694;54.382;9.708;2022-09-12T10:14:04;7.10;;;2.40;;
60859;SDS011;46694;54.382;9.708;2022-09-12T10:26:13;8.73;;;2.60;;
60859;SDS011;46694;54.382;9.708;2022-09-12T10:28:54;6.27;;;1.90;;
60859;SDS011;46694;54.382;9.708;2022-09-12T10:31:35;5.97;;;2.07;;
60859;SDS011;46694;54.382;9.708;2022-09-12T10:34:36;6.40;;;2.27;;
60859;SDS011;46694;54.382;9.708;2022-09-12T10:40:27;5.70;;;2.20;;
60859;SDS011;46694;54.382;9.708;2022-09-12T10:43:55;5.67;;;2.03;;
60859;SDS011;46694;54.382;9.708;2022-09-12T10:52:19;5.67;;;2.47;;
60859;SDS011;46694;54.382;9.708;2022-09-12T10:55:01;4.50;;;1.70;;
60859;SDS011;46694;54.382;9.708;2022-09-12T10:57:58;4.80;;;2.00;;
60859;SDS011;46694;54.382;9.708;2022-09-12T11:01:45;6.23;;;2.13;;
60859;SDS011;46694;54.382;9.708;2022-09-12T11:10:40;5.70;;;2.40;;
60859;SDS011;46694;54.382;9.708;2022-09-12T11:22:44;9.63;;;2.00;;
60859;SDS011;46694;54.382;9.708;2022-09-12T11:41:47;8.57;;;3.30;;
60859;SDS011;46694;54.382;9.708;2022-09-12T11:47:04;7.60;;;3.80;;
60859;SDS011;46694;54.382;9.708;2022-09-12T11:49:49;8.40;;;3.27;;
60859;SDS011;46694;54.382;9.708;2022-09-12T11:52:33;6.63;;;3.57;;
60859;SDS011;46694;54.382;9.708;2022-09-12T11:55:17;6.50;;;3.20;;
60859;SDS011;46694;54.382;9.708;2022-09-12T11:58:01;7.77;;;3.70;;
60859;SDS011;46694;54.382;9.708;2022-09-12T12:00:48;7.03;;;3.13;;
60859;SDS011;46694;54.382;9.708;2022-09-12T12:03:42;7.30;;;3.33;;
60859;SDS011;46694;54.382;9.708;2022-09-12T12:06:31;6.30;;;2.80;;
60859;SDS011;46694;54.382;9.708;2022-09-12T12:09:30;11.40;;;3.10;;
60859;SDS011;46694;54.382;9.708;2022-09-12T12:12:11;6.90;;;3.40;;
60859;SDS011;46694;54.382;9.708;2022-09-12T12:14:57;7.20;;;3.47;;
60859;SDS011;46694;54.382;9.708;2022-09-12T12:17:38;8.93;;;3.90;;
60859;SDS011;46694;54.382;9.708;2022-09-12T12:20:17;8.00;;;2.47;;
60859;SDS011;46694;54.382;9.708;2022-09-12T12:22:57;7.97;;;2.70;;
60859;SDS011;46694;54.382;9.708;2022-09-12T12:25:49;7.00;;;2.53;;
60859;SDS011;46694;54.382;9.708;2022-09-12T12:31:19;5.60;;;2.77;;
60859;SDS011;46694;54.382;9.708;2022-09-12T12:34:01;5.47;;;2.70;;
60859;SDS011;46694;54.382;9.708;2022-09-12T12:36:43;9.67;;;2.80;;
60859;SDS011;46694;54.382;9.708;2022-09-12T12:42:55;9.43;;;2.40;;
60859;SDS011;46694;54.382;9.708;2022-09-12T12:48:15;5.67;;;2.50;;
60859;SDS011;46694;54.382;9.708;2022-09-12T12:57:29;6.07;;;2.93;;
60859;SDS011;46694;54.382;9.708;2022-09-12T13:00:34;7.63;;;3.17;;
60859;SDS011;46694;54.382;9.708;2022-09-12T13:03:20;4.90;;;2.40;;
60859;SDS011;46694;54.382;9.708;2022-09-12T13:06:27;8.30;;;3.43;;
60859;SDS011;46694;54.382;9.708;2022-09-12T13:14:51;7.00;;;2.73;;
60859;SDS011;46694;54.382;9.708;2022-09-12T13:17:32;6.00;;;3.10;;
60859;SDS011;46694;54.382;9.708;2022-09-12T13:20:23;4.83;;;2.20;;
60859;SDS011;46694;54.382;9.708;2022-09-12T13:23:19;5.63;;;2.60;;
60859;SDS011;46694;54.382;9.708;2022-09-12T13:26:12;5.50;;;2.87;;
60859;SDS011;46694;54.382;9.708;2022-09-12T13:32:10;7.23;;;2.83;;
60859;SDS011;46694;54.382;9.708;2022-09-12T13:38:50;4.93;;;2.80;;
60859;SDS011;46694;54.382;9.708;2022-09-12T13:41:44;4.63;;;2.00;;
60859;SDS011;46694;54.382;9.708;2022-09-12T13:47:51;4.13;;;2.40;;
60859;SDS011;46694;54.382;9.708;2022-09-12T13:50:39;5.70;;;3.10;;
60859;SDS011;46694;54.382;9.708;2022-09-12T13:53:41;3.43;;;2.50;;
60859;SDS011;46694;54.382;9.708;2022-09-12T13:56:24;3.53;;;2.50;;
60859;SDS011;46694;54.382;9.708;2022-09-12T13:59:04;4.13;;;2.30;;
60859;SDS011;46694;54.382;9.708;2022-09-12T14:01:50;4.60;;;2.53;;
60859;SDS011;46694;54.382;9.708;2022-09-12T14:04:30;5.13;;;3.50;;
60859;SDS011;46694;54.382;9.708;2022-09-12T14:07:27;4.13;;;2.80;;
60859;SDS011;46694;54.382;9.708;2022-09-12T14:10:12;5.37;;;2.77;;
60859;SDS011;46694;54.382;9.708;2022-09-12T14:13:01;7.10;;;2.33;;
60859;SDS011;46694;54.382;9.708;2022-09-12T14:15:50;5.00;;;2.30;;
60859;SDS011;46694;54.382;9.708;2022-09-12T14:18:31;6.00;;;3.10;;
60859;SDS011;46694;54.382;9.708;2022-09-12T14:24:09;4.43;;;2.47;;
60859;SDS011;46694;54.382;9.708;2022-09-12T14:26:52;5.73;;;2.13;;
60859;SDS011;46694;54.382;9.708;2022-09-12T14:29:34;5.00;;;3.60;;
60859;SDS011;46694;54.382;9.708;2022-09-12T14:32:19;5.10;;;3.00;;
60859;SDS011;46694;54.382;9.708;2022-09-12T14:37:49;5.40;;;3.07;;
60859;SDS011;46694;54.382;9.708;2022-09-12T14:40:29;7.13;;;3.17;;
60859;SDS011;46694;54.382;9.708;2022-09-12T14:46:15;9.50;;;3.30;;
60859;SDS011;46694;54.382;9.708;2022-09-12T15:00:19;11.17;;;4.23;;
60859;SDS011;46694;54.382;9.708;2022-09-12T15:03:14;6.53;;;3.50;;
60859;SDS011;46694;54.382;9.708;2022-09-12T15:06:21;8.77;;;3.20;;
60859;SDS011;46694;54.382;9.708;2022-09-12T15:09:11;10.00;;;3.23;;
60859;SDS011;46694;54.382;9.708;2022-09-12T15:11:51;7.70;;;3.70;;
60859;SDS011;46694;54.382;9.708;2022-09-12T15:14:31;7.70;;;3.30;;
60859;SDS011;46694;54.382;9.708;2022-09-12T15:17:10;7.57;;;3.33;;
60859;SDS011;46694;54.382;9.708;2022-09-12T15:19:50;7.00;;;3.50;;
60859;SDS011;46694;54.382;9.708;2022-09-12T15:22:30;11.43;;;3.40;;
60859;SDS011;46694;54.382;9.708;2022-09-12T15:25:11;9.13;;;3.60;;
60859;SDS011;46694;54.382;9.708;2022-09-12T15:27:51;10.37;;;3.90;;
60859;SDS011;46694;54.382;9.708;2022-09-12T15:30:33;7.13;;;3.27;;
60859;SDS011;46694;54.382;9.708;2022-09-12T15:33:13;7.90;;;3.47;;
60859;SDS011;46694;54.382;9.708;2022-09-12T15:35:53;6.20;;;3.20;;
60859;SDS011;46694;54.382;9.708;2022-09-12T15:38:32;7.87;;;3.30;;
60859;SDS011;46694;54.382;9.708;2022-09-12T15:41:13;9.30;;;3.77;;
60859;SDS011;46694;54.382;9.708;2022-09-12T15:43:58;7.10;;;3.53;;
60859;SDS011;46694;54.382;9.708;2022-09-12T15:46:37;7.40;;;3.30;;
60859;SDS011;46694;54.382;9.708;2022-09-12T15:49:17;7.03;;;3.37;;
60859;SDS011;46694;54.382;9.708;2022-09-12T15:51:58;6.27;;;3.23;;
60859;SDS011;46694;54.382;9.708;2022-09-12T15:54:37;6.10;;;2.73;;
60859;SDS011;46694;54.382;9.708;2022-09-12T15:57:18;12.40;;;3.37;;
60859;SDS011;46694;54.382;9.708;2022-09-12T15:59:57;8.90;;;3.87;;
60859;SDS011;46694;54.382;9.708;2022-09-12T16:02:37;13.90;;;3.00;;
60859;SDS011;46694;54.382;9.708;2022-09-12T16:05:18;5.13;;;2.70;;
60859;SDS011;46694;54.382;9.708;2022-09-12T16:08:02;13.63;;;2.97;;
60859;SDS011;46694;54.382;9.708;2022-09-12T16:10:42;8.13;;;3.07;;
60859;SDS011;46694;54.382;9.708;2022-09-12T16:13:22;4.80;;;1.90;;
60859;SDS011;46694;54.382;9.708;2022-09-12T16:16:02;7.47;;;2.80;;
60859;SDS011;46694;54.382;9.708;2022-09-12T16:18:42;7.53;;;3.30;;
60859;SDS011;46694;54.382;9.708;2022-09-12T16:21:21;7.13;;;3.07;;
60859;SDS011;46694;54.382;9.708;2022-09-12T16:24:01;7.87;;;2.50;;
60859;SDS011;46694;54.382;9.708;2022-09-12T16:26:41;8.93;;;3.50;;
60859;SDS011;46694;54.382;9.708;2022-09-12T16:29:20;8.93;;;3.03;;
60859;SDS011;46694;54.382;9.708;2022-09-12T16:32:00;6.87;;;2.83;;
60859;SDS011;46694;54.382;9.708;2022-09-12T16:34:40;9.13;;;3.73;;
60859;SDS011;46694;54.382;9.708;2022-09-12T16:37:20;7.60;;;3.10;;
60859;SDS011;46694;54.382;9.708;2022-09-12T16:40:00;7.60;;;2.97;;
60859;SDS011;46694;54.382;9.708;2022-09-12T16:42:41;6.47;;;2.80;;
60859;SDS011;46694;54.382;9.708;2022-09-12T16:45:21;5.83;;;2.83;;
60859;SDS011;46694;54.382;9.708;2022-09-12T16:48:01;6.43;;;2.90;;
60859;SDS011;46694;54.382;9.708;2022-09-12T16:50:40;8.17;;;3.43;;
60859;SDS011;46694;54.382;9.708;2022-09-12T16:53:20;9.83;;;3.33;;
60859;SDS011;46694;54.382;9.708;2022-09-12T16:56:00;8.40;;;3.53;;
60859;SDS011;46694;54.382;9.708;2022-09-12T16:58:40;10.50;;;3.57;;
60859;SDS011;46694;54.382;9.708;2022-09-12T17:01:21;8.60;;;3.13;;
60859;SDS011;46694;54.382;9.708;2022-09-12T17:04:03;6.60;;;2.93;;
60859;SDS011;46694;54.382;9.708;2022-09-12T17:06:43;8.90;;;3.40;;
60859;SDS011;46694;54.382;9.708;2022-09-12T17:09:23;7.17;;;3.53;;
60859;SDS011;46694;54.382;9.708;2022-09-12T17:12:03;7.53;;;3.77;;
60859;SDS011;46694;54.382;9.708;2022-09-12T17:14:42;7.90;;;3.50;;
60859;SDS011;46694;54.382;9.708;2022-09-12T17:17:22;8.63;;;4.57;;
60859;SDS011;46694;54.382;9.708;2022-09-12T17:20:02;12.20;;;4.13;;
60859;SDS011;46694;54.382;9.708;2022-09-12T17:22:41;8.80;;;4.17;;
60859;SDS011;46694;54.382;9.708;2022-09-12T17:25:21;7.13;;;3.97;;
60859;SDS011;46694;54.382;9.708;2022-09-12T17:28:01;8.60;;;3.90;;
60859;SDS011;46694;54.382;9.708;2022-09-12T17:30:43;7.00;;;4.00;;
60859;SDS011;46694;54.382;9.708;2022-09-12T17:33:23;9.87;;;4.07;;
60859;SDS011;46694;54.382;9.708;2022-09-12T17:36:04;8.20;;;4.10;;
60859;SDS011;46694;54.382;9.708;2022-09-12T17:38:50;11.83;;;4.50;;
60859;SDS011;46694;54.382;9.708;2022-09-12T17:41:30;8.00;;;3.93;;
60859;SDS011;46694;54.382;9.708;2022-09-12T17:44:11;9.00;;;4.33;;
60859;SDS011;46694;54.382;9.708;2022-09-12T17:46:52;8.50;;;3.80;;
60859;SDS011;46694;54.382;9.708;2022-09-12T17:49:32;10.63;;;3.80;;
60859;SDS011;46694;54.382;9.708;2022-09-12T17:52:12;8.00;;;4.27;;
60859;SDS011;46694;54.382;9.708;2022-09-12T17:54:51;10.47;;;4.80;;
60859;SDS011;46694;54.382;9.708;2022-09-12T17:57:30;10.00;;;4.83;;
60859;SDS011;46694;54.382;9.708;2022-09-12T18:00:10;8.53;;;4.43;;
60859;SDS011;46694;54.382;9.708;2022-09-12T18:02:51;9.93;;;5.03;;
60859;SDS011;46694;54.382;9.708;2022-09-12T18:05:30;11.20;;;4.57;;
60859;SDS011;46694;54.382;9.708;2022-09-12T18:08:10;8.97;;;4.07;;
60859;SDS011;46694;54.382;9.708;2022-09-12T18:10:50;9.13;;;4.90;;
60859;SDS011;46694;54.382;9.708;2022-09-12T18:13:33;9.03;;;4.60;;
60859;SDS011;46694;54.382;9.708;2022-09-12T18:16:13;19.20;;;5.03;;
60859;SDS011;46694;54.382;9.708;2022-09-12T18:18:53;10.33;;;4.67;;
60859;SDS011;46694;54.382;9.708;2022-09-12T18:21:33;9.87;;;4.80;;
60859;SDS011;46694;54.382;9.708;2022-09-12T18:24:13;12.90;;;5.73;;
60859;SDS011;46694;54.382;9.708;2022-09-12T18:26:53;7.60;;;4.50;;
60859;SDS011;46694;54.382;9.708;2022-09-12T18:29:36;8.17;;;4.50;;
60859;SDS011;46694;54.382;9.708;2022-09-12T18:32:15;11.63;;;5.10;;
60859;SDS011;46694;54.382;9.708;2022-09-12T18:34:55;8.50;;;4.90;;
60859;SDS011;46694;54.382;9.708;2022-09-12T18:37:34;7.63;;;4.53;;
60859;SDS011;46694;54.382;9.708;2022-09-12T18:40:14;11.97;;;4.47;;
60859;SDS011;46694;54.382;9.708;2022-09-12T18:42:53;8.43;;;5.00;;
60859;SDS011;46694;54.382;9.708;2022-09-12T18:45:33;8.87;;;4.90;;
60859;SDS011;46694;54.382;9.708;2022-09-12T18:48:13;7.73;;;4.73;;
60859;SDS011;46694;54.382;9.708;2022-09-12T18:50:52;10.70;;;5.03;;
60859;SDS011;46694;54.382;9.708;2022-09-12T18:53:32;8.03;;;4.27;;
60859;SDS011;46694;54.382;9.708;2022-09-12T18:56:12;13.70;;;4.50;;
60859;SDS011;46694;54.382;9.708;2022-09-12T18:58:53;7.53;;;4.50;;
60859;SDS011;46694;54.382;9.708;2022-09-12T19:01:35;8.43;;;3.37;;
60859;SDS011;46694;54.382;9.708;2022-09-12T19:04:16;8.97;;;4.53;;
60859;SDS011;46694;54.382;9.708;2022-09-12T19:06:56;8.93;;;4.40;;
60859;SDS011;46694;54.382;9.708;2022-09-12T19:09:35;7.30;;;4.30;;
60859;SDS011;46694;54.382;9.708;2022-09-12T19:12:15;7.80;;;4.37;;
60859;SDS011;46694;54.382;9.708;2022-09-12T19:14:55;7.20;;;4.07;;
60859;SDS011;46694;54.382;9.708;2022-09-12T19:17:34;7.60;;;4.43;;
60859;SDS011;46694;54.382;9.708;2022-09-12T19:20:14;9.13;;;3.83;;
60859;SDS011;46694;54.382;9.708;2022-09-12T19:22:54;10.17;;;4.43;;
60859;SDS011;46694;54.382;9.708;2022-09-12T19:25:33;13.57;;;4.33;;
60859;SDS011;46694;54.382;9.708;2022-09-12T19:28:12;10.00;;;5.00;;
60859;SDS011;46694;54.382;9.708;2022-09-12T19:31:09;7.87;;;3.93;;
60859;SDS011;46694;54.382;9.708;2022-09-12T19:33:52;8.03;;;4.30;;
60859;SDS011;46694;54.382;9.708;2022-09-12T19:36:37;7.73;;;4.10;;
60859;SDS011;46694;54.382;9.708;2022-09-12T19:39:17;10.80;;;3.97;;
60859;SDS011;46694;54.382;9.708;2022-09-12T19:41:57;8.67;;;5.00;;